sensor_id;sensor_type;location;lat;lon;timestamp;P1;durP1;ratioP1;P2;durP2;ratioP2
53654;SDS011;39558;52.028;8.536;2023-05-29T00:02:08;3.58;;;1.73;;
53654;SDS011;39558;52.028;8.536;2023-05-29T00:04:34;3.60;;;1.73;;
53654;SDS011;39558;52.028;8.536;2023-05-29T00:07:00;3.53;;;1.63;;
53654;SDS011;39558;52.028;8.536;2023-05-29T00:09:26;3.83;;;1.63;;
53654;SDS011;39558;52.028;8.536;2023-05-29T00:11:53;3.60;;;1.63;;
53654;SDS011;39558;52.028;8.536;2023-05-29T00:14:19;3.78;;;1.55;;
53654;SDS011;39558;52.028;8.536;2023-05-29T00:16:45;3.45;;;1.70;;
53654;SDS011;39558;52.028;8.536;2023-05-29T00:19:12;3.88;;;1.85;;
53654;SDS011;39558;52.028;8.536;2023-05-29T00:21:38;3.85;;;1.50;;
53654;SDS011;39558;52.028;8.536;2023-05-29T00:24:04;3.70;;;1.58;;
53654;SDS011;39558;52.028;8.536;2023-05-29T00:26:30;4.45;;;1.75;;
53654;SDS011;39558;52.028;8.536;2023-05-29T00:28:56;4.68;;;2.00;;
53654;SDS011;39558;52.028;8.536;2023-05-29T00:31:22;3.60;;;1.60;;
53654;SDS011;39558;52.028;8.536;2023-05-29T00:33:49;5.78;;;1.92;;
53654;SDS011;39558;52.028;8.536;2023-05-29T00:36:15;5.20;;;1.83;;
53654;SDS011;39558;52.028;8.536;2023-05-29T00:38:41;5.47;;;1.70;;
53654;SDS011;39558;52.028;8.536;2023-05-29T00:41:07;3.28;;;1.90;;
53654;SDS011;39558;52.028;8.536;2023-05-29T00:43:33;2.63;;;1.35;;
53654;SDS011;39558;52.028;8.536;2023-05-29T00:45:59;4.95;;;2.10;;
53654;SDS011;39558;52.028;8.536;2023-05-29T00:48:25;4.40;;;1.65;;
53654;SDS011;39558;52.028;8.536;2023-05-29T00:50:51;6.07;;;2.05;;
53654;SDS011;39558;52.028;8.536;2023-05-29T00:53:21;5.32;;;2.00;;
53654;SDS011;39558;52.028;8.536;2023-05-29T00:55:50;3.75;;;1.60;;
53654;SDS011;39558;52.028;8.536;2023-05-29T00:58:16;3.25;;;1.60;;
53654;SDS011;39558;52.028;8.536;2023-05-29T01:00:42;3.78;;;1.67;;
53654;SDS011;39558;52.028;8.536;2023-05-29T01:03:08;5.15;;;2.00;;
53654;SDS011;39558;52.028;8.536;2023-05-29T01:05:35;4.47;;;2.00;;
53654;SDS011;39558;52.028;8.536;2023-05-29T01:08:01;4.43;;;2.38;;
53654;SDS011;39558;52.028;8.536;2023-05-29T01:10:27;3.35;;;1.95;;
53654;SDS011;39558;52.028;8.536;2023-05-29T01:13:06;3.35;;;1.83;;
53654;SDS011;39558;52.028;8.536;2023-05-29T01:15:39;5.30;;;1.75;;
53654;SDS011;39558;52.028;8.536;2023-05-29T01:18:23;3.95;;;1.50;;
53654;SDS011;39558;52.028;8.536;2023-05-29T01:23:53;4.40;;;1.85;;
53654;SDS011;39558;52.028;8.536;2023-05-29T01:26:32;5.20;;;2.72;;
53654;SDS011;39558;52.028;8.536;2023-05-29T01:29:00;4.97;;;2.08;;
53654;SDS011;39558;52.028;8.536;2023-05-29T01:31:26;3.45;;;1.48;;
53654;SDS011;39558;52.028;8.536;2023-05-29T01:33:55;3.25;;;1.60;;
53654;SDS011;39558;52.028;8.536;2023-05-29T01:36:22;7.85;;;2.33;;
53654;SDS011;39558;52.028;8.536;2023-05-29T01:38:48;5.38;;;2.05;;
53654;SDS011;39558;52.028;8.536;2023-05-29T01:41:15;5.05;;;2.20;;
53654;SDS011;39558;52.028;8.536;2023-05-29T01:43:42;6.35;;;1.50;;
53654;SDS011;39558;52.028;8.536;2023-05-29T01:46:08;4.60;;;2.22;;
53654;SDS011;39558;52.028;8.536;2023-05-29T01:48:35;4.55;;;1.83;;
53654;SDS011;39558;52.028;8.536;2023-05-29T01:51:01;5.40;;;1.50;;
53654;SDS011;39558;52.028;8.536;2023-05-29T01:53:27;6.40;;;2.20;;
53654;SDS011;39558;52.028;8.536;2023-05-29T01:55:53;4.10;;;1.75;;
53654;SDS011;39558;52.028;8.536;2023-05-29T01:58:20;3.75;;;1.83;;
53654;SDS011;39558;52.028;8.536;2023-05-29T02:00:46;4.60;;;1.65;;
53654;SDS011;39558;52.028;8.536;2023-05-29T02:03:12;3.88;;;1.58;;
53654;SDS011;39558;52.028;8.536;2023-05-29T02:05:38;6.32;;;1.73;;
53654;SDS011;39558;52.028;8.536;2023-05-29T02:08:04;4.22;;;2.13;;
53654;SDS011;39558;52.028;8.536;2023-05-29T02:10:30;4.00;;;1.80;;
53654;SDS011;39558;52.028;8.536;2023-05-29T02:12:57;4.90;;;1.80;;
53654;SDS011;39558;52.028;8.536;2023-05-29T02:15:22;6.35;;;1.70;;
53654;SDS011;39558;52.028;8.536;2023-05-29T02:17:48;3.72;;;1.70;;
53654;SDS011;39558;52.028;8.536;2023-05-29T02:20:14;3.85;;;1.50;;
53654;SDS011;39558;52.028;8.536;2023-05-29T02:22:41;3.58;;;1.60;;
53654;SDS011;39558;52.028;8.536;2023-05-29T02:25:07;3.88;;;1.98;;
53654;SDS011;39558;52.028;8.536;2023-05-29T02:27:32;4.05;;;1.65;;
53654;SDS011;39558;52.028;8.536;2023-05-29T02:29:58;4.63;;;1.58;;
53654;SDS011;39558;52.028;8.536;2023-05-29T02:32:24;4.05;;;1.58;;
53654;SDS011;39558;52.028;8.536;2023-05-29T02:34:52;5.00;;;2.15;;
53654;SDS011;39558;52.028;8.536;2023-05-29T02:37:18;4.68;;;1.92;;
53654;SDS011;39558;52.028;8.536;2023-05-29T02:39:44;4.22;;;1.92;;
53654;SDS011;39558;52.028;8.536;2023-05-29T02:42:10;5.47;;;2.00;;
53654;SDS011;39558;52.028;8.536;2023-05-29T02:44:35;6.93;;;2.78;;
53654;SDS011;39558;52.028;8.536;2023-05-29T02:47:01;4.38;;;2.10;;
53654;SDS011;39558;52.028;8.536;2023-05-29T02:49:27;5.50;;;2.22;;
53654;SDS011;39558;52.028;8.536;2023-05-29T02:51:53;4.15;;;2.13;;
53654;SDS011;39558;52.028;8.536;2023-05-29T02:54:22;5.40;;;1.90;;
53654;SDS011;39558;52.028;8.536;2023-05-29T02:56:48;4.20;;;2.00;;
53654;SDS011;39558;52.028;8.536;2023-05-29T02:59:14;4.63;;;1.95;;
53654;SDS011;39558;52.028;8.536;2023-05-29T03:01:40;5.47;;;2.15;;
53654;SDS011;39558;52.028;8.536;2023-05-29T03:04:06;3.15;;;1.77;;
53654;SDS011;39558;52.028;8.536;2023-05-29T03:06:32;4.78;;;1.77;;
53654;SDS011;39558;52.028;8.536;2023-05-29T03:08:58;4.07;;;1.88;;
53654;SDS011;39558;52.028;8.536;2023-05-29T03:11:24;3.45;;;1.60;;
53654;SDS011;39558;52.028;8.536;2023-05-29T03:13:50;5.30;;;1.75;;
53654;SDS011;39558;52.028;8.536;2023-05-29T03:16:16;3.33;;;1.45;;
53654;SDS011;39558;52.028;8.536;2023-05-29T03:18:42;3.47;;;1.63;;
53654;SDS011;39558;52.028;8.536;2023-05-29T03:21:08;4.25;;;1.65;;
53654;SDS011;39558;52.028;8.536;2023-05-29T03:23:34;5.10;;;2.00;;
53654;SDS011;39558;52.028;8.536;2023-05-29T03:26:00;4.45;;;1.58;;
53654;SDS011;39558;52.028;8.536;2023-05-29T03:28:25;3.88;;;1.73;;
53654;SDS011;39558;52.028;8.536;2023-05-29T03:30:51;4.28;;;2.30;;
53654;SDS011;39558;52.028;8.536;2023-05-29T03:33:17;4.65;;;1.90;;
53654;SDS011;39558;52.028;8.536;2023-05-29T03:35:43;5.25;;;2.15;;
53654;SDS011;39558;52.028;8.536;2023-05-29T03:38:09;4.63;;;1.80;;
53654;SDS011;39558;52.028;8.536;2023-05-29T03:40:35;6.22;;;2.10;;
53654;SDS011;39558;52.028;8.536;2023-05-29T03:43:01;4.20;;;1.73;;
53654;SDS011;39558;52.028;8.536;2023-05-29T03:45:27;4.10;;;1.83;;
53654;SDS011;39558;52.028;8.536;2023-05-29T03:47:52;3.47;;;1.60;;
53654;SDS011;39558;52.028;8.536;2023-05-29T03:50:18;3.17;;;1.52;;
53654;SDS011;39558;52.028;8.536;2023-05-29T03:52:44;2.92;;;1.63;;
53654;SDS011;39558;52.028;8.536;2023-05-29T03:55:10;4.95;;;1.80;;
53654;SDS011;39558;52.028;8.536;2023-05-29T03:57:39;4.63;;;2.30;;
53654;SDS011;39558;52.028;8.536;2023-05-29T04:00:07;5.05;;;2.05;;
53654;SDS011;39558;52.028;8.536;2023-05-29T04:02:33;6.65;;;2.25;;
53654;SDS011;39558;52.028;8.536;2023-05-29T04:04:59;4.38;;;2.13;;
53654;SDS011;39558;52.028;8.536;2023-05-29T04:07:25;4.40;;;1.67;;
53654;SDS011;39558;52.028;8.536;2023-05-29T04:09:50;4.43;;;1.95;;
53654;SDS011;39558;52.028;8.536;2023-05-29T04:12:16;4.40;;;2.10;;
53654;SDS011;39558;52.028;8.536;2023-05-29T04:14:42;4.72;;;1.90;;
53654;SDS011;39558;52.028;8.536;2023-05-29T04:17:08;4.70;;;2.08;;
53654;SDS011;39558;52.028;8.536;2023-05-29T04:19:35;4.03;;;1.85;;
53654;SDS011;39558;52.028;8.536;2023-05-29T04:22:00;4.30;;;1.90;;
53654;SDS011;39558;52.028;8.536;2023-05-29T04:24:26;4.68;;;1.80;;
53654;SDS011;39558;52.028;8.536;2023-05-29T04:26:52;4.15;;;1.77;;
53654;SDS011;39558;52.028;8.536;2023-05-29T04:29:18;3.17;;;1.55;;
53654;SDS011;39558;52.028;8.536;2023-05-29T04:31:44;3.58;;;1.70;;
53654;SDS011;39558;52.028;8.536;2023-05-29T04:34:12;4.07;;;1.98;;
53654;SDS011;39558;52.028;8.536;2023-05-29T04:36:42;5.35;;;1.90;;
53654;SDS011;39558;52.028;8.536;2023-05-29T04:39:08;3.65;;;1.73;;
53654;SDS011;39558;52.028;8.536;2023-05-29T04:41:34;5.28;;;1.98;;
53654;SDS011;39558;52.028;8.536;2023-05-29T04:44:00;5.28;;;1.85;;
53654;SDS011;39558;52.028;8.536;2023-05-29T04:46:26;2.95;;;1.67;;
53654;SDS011;39558;52.028;8.536;2023-05-29T04:48:52;3.90;;;1.77;;
53654;SDS011;39558;52.028;8.536;2023-05-29T04:51:22;5.30;;;1.60;;
53654;SDS011;39558;52.028;8.536;2023-05-29T04:53:48;6.15;;;1.83;;
53654;SDS011;39558;52.028;8.536;2023-05-29T04:56:14;3.50;;;1.85;;
53654;SDS011;39558;52.028;8.536;2023-05-29T04:58:41;4.22;;;1.75;;
53654;SDS011;39558;52.028;8.536;2023-05-29T05:01:07;3.47;;;1.95;;
53654;SDS011;39558;52.028;8.536;2023-05-29T05:03:34;5.68;;;2.40;;
53654;SDS011;39558;52.028;8.536;2023-05-29T05:06:00;4.65;;;1.92;;
53654;SDS011;39558;52.028;8.536;2023-05-29T05:08:27;4.30;;;1.67;;
53654;SDS011;39558;52.028;8.536;2023-05-29T05:10:54;3.42;;;1.77;;
53654;SDS011;39558;52.028;8.536;2023-05-29T05:13:20;3.03;;;1.70;;
53654;SDS011;39558;52.028;8.536;2023-05-29T05:15:46;4.35;;;2.00;;
53654;SDS011;39558;52.028;8.536;2023-05-29T05:18:12;3.78;;;1.90;;
53654;SDS011;39558;52.028;8.536;2023-05-29T05:20:38;4.72;;;1.88;;
53654;SDS011;39558;52.028;8.536;2023-05-29T05:23:03;3.55;;;2.08;;
53654;SDS011;39558;52.028;8.536;2023-05-29T05:25:29;3.72;;;1.85;;
53654;SDS011;39558;52.028;8.536;2023-05-29T05:27:55;3.20;;;2.33;;
53654;SDS011;39558;52.028;8.536;2023-05-29T05:30:21;4.40;;;2.25;;
53654;SDS011;39558;52.028;8.536;2023-05-29T05:32:47;4.40;;;1.70;;
53654;SDS011;39558;52.028;8.536;2023-05-29T05:35:13;2.63;;;1.52;;
53654;SDS011;39558;52.028;8.536;2023-05-29T05:37:39;2.70;;;1.40;;
53654;SDS011;39558;52.028;8.536;2023-05-29T05:40:05;3.78;;;1.80;;
53654;SDS011;39558;52.028;8.536;2023-05-29T05:42:32;2.90;;;1.63;;
53654;SDS011;39558;52.028;8.536;2023-05-29T05:44:58;4.13;;;1.88;;
53654;SDS011;39558;52.028;8.536;2023-05-29T05:47:23;3.42;;;1.67;;
53654;SDS011;39558;52.028;8.536;2023-05-29T05:49:50;3.67;;;1.77;;
53654;SDS011;39558;52.028;8.536;2023-05-29T05:52:16;3.40;;;1.58;;
53654;SDS011;39558;52.028;8.536;2023-05-29T05:54:42;3.28;;;1.60;;
53654;SDS011;39558;52.028;8.536;2023-05-29T05:57:08;2.65;;;1.30;;
53654;SDS011;39558;52.028;8.536;2023-05-29T05:59:34;3.67;;;1.98;;
53654;SDS011;39558;52.028;8.536;2023-05-29T06:02:00;2.70;;;1.58;;
53654;SDS011;39558;52.028;8.536;2023-05-29T06:04:28;6.05;;;1.90;;
53654;SDS011;39558;52.028;8.536;2023-05-29T06:06:54;2.88;;;1.35;;
53654;SDS011;39558;52.028;8.536;2023-05-29T06:09:20;4.97;;;1.85;;
53654;SDS011;39558;52.028;8.536;2023-05-29T06:11:46;3.38;;;1.60;;
53654;SDS011;39558;52.028;8.536;2023-05-29T06:14:12;3.90;;;1.60;;
53654;SDS011;39558;52.028;8.536;2023-05-29T06:16:38;4.03;;;1.75;;
53654;SDS011;39558;52.028;8.536;2023-05-29T06:19:04;3.33;;;1.20;;
53654;SDS011;39558;52.028;8.536;2023-05-29T06:21:31;3.13;;;1.15;;
53654;SDS011;39558;52.028;8.536;2023-05-29T06:23:57;3.58;;;1.40;;
53654;SDS011;39558;52.028;8.536;2023-05-29T06:26:23;3.30;;;1.50;;
53654;SDS011;39558;52.028;8.536;2023-05-29T06:28:53;2.63;;;1.27;;
53654;SDS011;39558;52.028;8.536;2023-05-29T06:31:19;4.03;;;1.60;;
53654;SDS011;39558;52.028;8.536;2023-05-29T06:33:45;4.68;;;1.88;;
53654;SDS011;39558;52.028;8.536;2023-05-29T06:36:11;3.80;;;1.33;;
53654;SDS011;39558;52.028;8.536;2023-05-29T06:38:38;4.57;;;2.00;;
53654;SDS011;39558;52.028;8.536;2023-05-29T06:41:05;3.63;;;1.48;;
53654;SDS011;39558;52.028;8.536;2023-05-29T06:43:30;3.00;;;1.23;;
53654;SDS011;39558;52.028;8.536;2023-05-29T06:45:57;3.42;;;1.40;;
53654;SDS011;39558;52.028;8.536;2023-05-29T06:48:23;5.20;;;1.50;;
53654;SDS011;39558;52.028;8.536;2023-05-29T06:50:48;3.38;;;1.27;;
53654;SDS011;39558;52.028;8.536;2023-05-29T06:53:14;3.58;;;1.50;;
53654;SDS011;39558;52.028;8.536;2023-05-29T06:55:40;2.95;;;1.35;;
53654;SDS011;39558;52.028;8.536;2023-05-29T06:58:06;2.58;;;1.35;;
53654;SDS011;39558;52.028;8.536;2023-05-29T07:00:32;4.00;;;1.67;;
53654;SDS011;39558;52.028;8.536;2023-05-29T07:02:58;2.40;;;1.30;;
53654;SDS011;39558;52.028;8.536;2023-05-29T07:05:26;4.20;;;2.40;;
53654;SDS011;39558;52.028;8.536;2023-05-29T07:07:52;3.72;;;1.60;;
53654;SDS011;39558;52.028;8.536;2023-05-29T07:10:18;2.97;;;1.30;;
53654;SDS011;39558;52.028;8.536;2023-05-29T07:12:44;2.70;;;1.77;;
53654;SDS011;39558;52.028;8.536;2023-05-29T07:15:10;2.45;;;1.00;;
53654;SDS011;39558;52.028;8.536;2023-05-29T07:17:36;3.97;;;1.70;;
53654;SDS011;39558;52.028;8.536;2023-05-29T07:20:01;3.55;;;1.52;;
53654;SDS011;39558;52.028;8.536;2023-05-29T07:22:29;2.25;;;1.13;;
53654;SDS011;39558;52.028;8.536;2023-05-29T07:24:55;2.38;;;1.20;;
53654;SDS011;39558;52.028;8.536;2023-05-29T07:27:21;3.00;;;1.13;;
53654;SDS011;39558;52.028;8.536;2023-05-29T07:29:47;3.17;;;1.38;;
53654;SDS011;39558;52.028;8.536;2023-05-29T07:32:13;2.58;;;1.27;;
53654;SDS011;39558;52.028;8.536;2023-05-29T07:34:39;2.60;;;1.38;;
53654;SDS011;39558;52.028;8.536;2023-05-29T07:37:05;2.10;;;1.23;;
53654;SDS011;39558;52.028;8.536;2023-05-29T07:39:32;3.45;;;1.30;;
53654;SDS011;39558;52.028;8.536;2023-05-29T07:41:59;1.92;;;1.10;;
53654;SDS011;39558;52.028;8.536;2023-05-29T07:44:26;1.63;;;0.93;;
53654;SDS011;39558;52.028;8.536;2023-05-29T07:46:52;2.88;;;1.33;;
53654;SDS011;39558;52.028;8.536;2023-05-29T07:49:18;2.95;;;1.30;;
53654;SDS011;39558;52.028;8.536;2023-05-29T07:51:44;4.20;;;1.90;;
53654;SDS011;39558;52.028;8.536;2023-05-29T07:54:10;2.75;;;1.30;;
53654;SDS011;39558;52.028;8.536;2023-05-29T07:56:36;2.35;;;1.33;;
53654;SDS011;39558;52.028;8.536;2023-05-29T07:59:03;3.42;;;1.20;;
53654;SDS011;39558;52.028;8.536;2023-05-29T08:01:30;3.30;;;1.38;;
53654;SDS011;39558;52.028;8.536;2023-05-29T08:03:56;2.72;;;1.23;;
53654;SDS011;39558;52.028;8.536;2023-05-29T08:06:22;1.42;;;0.82;;
53654;SDS011;39558;52.028;8.536;2023-05-29T08:08:48;2.67;;;1.52;;
53654;SDS011;39558;52.028;8.536;2023-05-29T08:11:14;2.47;;;1.08;;
53654;SDS011;39558;52.028;8.536;2023-05-29T08:13:40;2.33;;;0.93;;
53654;SDS011;39558;52.028;8.536;2023-05-29T08:16:06;2.67;;;1.17;;
53654;SDS011;39558;52.028;8.536;2023-05-29T08:18:32;2.55;;;1.20;;
53654;SDS011;39558;52.028;8.536;2023-05-29T08:20:58;3.70;;;1.52;;
53654;SDS011;39558;52.028;8.536;2023-05-29T08:23:24;1.50;;;0.90;;
53654;SDS011;39558;52.028;8.536;2023-05-29T08:25:50;3.40;;;1.40;;
53654;SDS011;39558;52.028;8.536;2023-05-29T08:28:16;2.35;;;1.17;;
53654;SDS011;39558;52.028;8.536;2023-05-29T08:30:42;2.58;;;1.02;;
53654;SDS011;39558;52.028;8.536;2023-05-29T08:33:07;2.67;;;1.00;;
53654;SDS011;39558;52.028;8.536;2023-05-29T08:35:33;1.80;;;0.95;;
53654;SDS011;39558;52.028;8.536;2023-05-29T08:38:00;3.15;;;1.25;;
53654;SDS011;39558;52.028;8.536;2023-05-29T08:40:26;2.38;;;1.25;;
53654;SDS011;39558;52.028;8.536;2023-05-29T08:42:59;2.70;;;1.00;;
53654;SDS011;39558;52.028;8.536;2023-05-29T08:45:28;1.85;;;0.90;;
53654;SDS011;39558;52.028;8.536;2023-05-29T08:47:54;2.35;;;0.90;;
53654;SDS011;39558;52.028;8.536;2023-05-29T08:50:23;4.25;;;1.38;;
53654;SDS011;39558;52.028;8.536;2023-05-29T08:52:49;2.17;;;1.10;;
53654;SDS011;39558;52.028;8.536;2023-05-29T08:55:16;2.72;;;1.00;;
53654;SDS011;39558;52.028;8.536;2023-05-29T08:57:42;1.65;;;0.82;;
53654;SDS011;39558;52.028;8.536;2023-05-29T09:00:09;2.45;;;0.90;;
53654;SDS011;39558;52.028;8.536;2023-05-29T09:02:41;3.03;;;1.13;;
53654;SDS011;39558;52.028;8.536;2023-05-29T09:05:14;2.80;;;1.13;;
53654;SDS011;39558;52.028;8.536;2023-05-29T09:07:40;1.75;;;0.95;;
53654;SDS011;39558;52.028;8.536;2023-05-29T09:10:06;3.42;;;0.90;;
53654;SDS011;39558;52.028;8.536;2023-05-29T09:12:33;2.42;;;0.93;;
53654;SDS011;39558;52.028;8.536;2023-05-29T09:14:59;2.30;;;1.20;;
53654;SDS011;39558;52.028;8.536;2023-05-29T09:17:30;2.40;;;1.10;;
53654;SDS011;39558;52.028;8.536;2023-05-29T09:19:56;3.20;;;1.05;;
53654;SDS011;39558;52.028;8.536;2023-05-29T09:22:22;5.05;;;1.80;;
53654;SDS011;39558;52.028;8.536;2023-05-29T09:24:48;2.33;;;1.13;;
53654;SDS011;39558;52.028;8.536;2023-05-29T09:27:15;3.40;;;1.05;;
53654;SDS011;39558;52.028;8.536;2023-05-29T09:29:42;1.75;;;0.90;;
53654;SDS011;39558;52.028;8.536;2023-05-29T09:32:09;1.83;;;1.00;;
53654;SDS011;39558;52.028;8.536;2023-05-29T09:34:36;1.95;;;0.98;;
53654;SDS011;39558;52.028;8.536;2023-05-29T09:37:02;3.00;;;1.40;;
53654;SDS011;39558;52.028;8.536;2023-05-29T09:42:08;2.40;;;0.98;;
53654;SDS011;39558;52.028;8.536;2023-05-29T09:44:34;2.33;;;1.20;;
53654;SDS011;39558;52.028;8.536;2023-05-29T09:47:00;2.38;;;1.00;;
53654;SDS011;39558;52.028;8.536;2023-05-29T09:49:26;2.92;;;1.10;;
53654;SDS011;39558;52.028;8.536;2023-05-29T09:51:55;3.25;;;1.38;;
53654;SDS011;39558;52.028;8.536;2023-05-29T09:54:24;2.58;;;1.23;;
53654;SDS011;39558;52.028;8.536;2023-05-29T09:56:53;3.05;;;1.40;;
53654;SDS011;39558;52.028;8.536;2023-05-29T09:59:20;3.03;;;1.23;;
53654;SDS011;39558;52.028;8.536;2023-05-29T10:01:49;2.65;;;1.02;;
53654;SDS011;39558;52.028;8.536;2023-05-29T10:04:18;2.85;;;1.05;;
53654;SDS011;39558;52.028;8.536;2023-05-29T10:06:44;2.28;;;1.10;;
53654;SDS011;39558;52.028;8.536;2023-05-29T10:09:12;2.53;;;1.17;;
53654;SDS011;39558;52.028;8.536;2023-05-29T10:11:43;3.33;;;1.23;;
53654;SDS011;39558;52.028;8.536;2023-05-29T10:16:36;2.55;;;1.17;;
53654;SDS011;39558;52.028;8.536;2023-05-29T10:19:06;2.20;;;1.10;;
53654;SDS011;39558;52.028;8.536;2023-05-29T10:21:32;3.28;;;1.00;;
53654;SDS011;39558;52.028;8.536;2023-05-29T10:24:00;1.73;;;0.90;;
53654;SDS011;39558;52.028;8.536;2023-05-29T10:26:28;2.22;;;1.20;;
53654;SDS011;39558;52.028;8.536;2023-05-29T10:29:08;2.15;;;0.88;;
53654;SDS011;39558;52.028;8.536;2023-05-29T10:31:59;3.05;;;1.02;;
53654;SDS011;39558;52.028;8.536;2023-05-29T10:34:30;2.25;;;0.90;;
53654;SDS011;39558;52.028;8.536;2023-05-29T10:37:03;2.13;;;0.95;;
53654;SDS011;39558;52.028;8.536;2023-05-29T10:39:30;2.22;;;1.10;;
53654;SDS011;39558;52.028;8.536;2023-05-29T10:41:56;2.05;;;1.13;;
53654;SDS011;39558;52.028;8.536;2023-05-29T10:49:25;2.58;;;1.10;;
53654;SDS011;39558;52.028;8.536;2023-05-29T10:51:51;1.77;;;1.00;;
53654;SDS011;39558;52.028;8.536;2023-05-29T10:54:19;2.35;;;1.20;;
53654;SDS011;39558;52.028;8.536;2023-05-29T10:56:52;2.45;;;1.15;;
53654;SDS011;39558;52.028;8.536;2023-05-29T10:59:18;2.60;;;1.10;;
53654;SDS011;39558;52.028;8.536;2023-05-29T11:01:44;3.08;;;1.50;;
53654;SDS011;39558;52.028;8.536;2023-05-29T11:06:45;2.70;;;1.33;;
53654;SDS011;39558;52.028;8.536;2023-05-29T11:12:12;2.95;;;1.30;;
53654;SDS011;39558;52.028;8.536;2023-05-29T11:14:45;1.95;;;0.90;;
53654;SDS011;39558;52.028;8.536;2023-05-29T11:20:42;2.45;;;1.10;;
53654;SDS011;39558;52.028;8.536;2023-05-29T11:23:09;3.85;;;1.15;;
53654;SDS011;39558;52.028;8.536;2023-05-29T11:25:42;1.90;;;0.90;;
53654;SDS011;39558;52.028;8.536;2023-05-29T11:28:09;2.60;;;1.27;;
53654;SDS011;39558;52.028;8.536;2023-05-29T11:30:42;2.55;;;1.35;;
53654;SDS011;39558;52.028;8.536;2023-05-29T11:33:08;2.50;;;1.20;;
53654;SDS011;39558;52.028;8.536;2023-05-29T11:35:34;2.10;;;1.25;;
53654;SDS011;39558;52.028;8.536;2023-05-29T11:38:00;2.35;;;1.10;;
53654;SDS011;39558;52.028;8.536;2023-05-29T11:40:26;2.92;;;1.20;;
53654;SDS011;39558;52.028;8.536;2023-05-29T11:42:52;3.08;;;1.23;;
53654;SDS011;39558;52.028;8.536;2023-05-29T11:45:19;3.67;;;0.90;;
53654;SDS011;39558;52.028;8.536;2023-05-29T11:50:21;2.83;;;1.00;;
53654;SDS011;39558;52.028;8.536;2023-05-29T11:52:47;2.03;;;1.10;;
53654;SDS011;39558;52.028;8.536;2023-05-29T11:55:13;2.30;;;1.08;;
53654;SDS011;39558;52.028;8.536;2023-05-29T11:57:39;3.00;;;1.27;;
53654;SDS011;39558;52.028;8.536;2023-05-29T12:00:05;1.90;;;1.10;;
53654;SDS011;39558;52.028;8.536;2023-05-29T12:02:35;2.40;;;1.27;;
53654;SDS011;39558;52.028;8.536;2023-05-29T12:05:02;2.97;;;1.23;;
53654;SDS011;39558;52.028;8.536;2023-05-29T12:07:28;1.95;;;1.10;;
53654;SDS011;39558;52.028;8.536;2023-05-29T12:09:54;2.35;;;1.20;;
53654;SDS011;39558;52.028;8.536;2023-05-29T12:12:22;3.05;;;1.33;;
53654;SDS011;39558;52.028;8.536;2023-05-29T12:14:51;2.17;;;1.35;;
53654;SDS011;39558;52.028;8.536;2023-05-29T12:17:18;2.45;;;1.20;;
53654;SDS011;39558;52.028;8.536;2023-05-29T12:19:44;2.72;;;1.02;;
53654;SDS011;39558;52.028;8.536;2023-05-29T12:22:10;3.03;;;1.40;;
53654;SDS011;39558;52.028;8.536;2023-05-29T12:24:37;2.70;;;1.30;;
53654;SDS011;39558;52.028;8.536;2023-05-29T12:27:06;2.80;;;1.25;;
53654;SDS011;39558;52.028;8.536;2023-05-29T12:29:33;3.30;;;1.55;;
53654;SDS011;39558;52.028;8.536;2023-05-29T12:31:59;2.25;;;1.13;;
53654;SDS011;39558;52.028;8.536;2023-05-29T12:34:25;3.30;;;1.08;;
53654;SDS011;39558;52.028;8.536;2023-05-29T12:36:51;2.55;;;1.40;;
53654;SDS011;39558;52.028;8.536;2023-05-29T12:39:17;3.65;;;1.63;;
53654;SDS011;39558;52.028;8.536;2023-05-29T12:41:46;2.13;;;1.13;;
53654;SDS011;39558;52.028;8.536;2023-05-29T12:44:13;2.05;;;1.08;;
53654;SDS011;39558;52.028;8.536;2023-05-29T12:46:39;2.28;;;1.15;;
53654;SDS011;39558;52.028;8.536;2023-05-29T12:49:14;3.80;;;1.20;;
53654;SDS011;39558;52.028;8.536;2023-05-29T12:51:43;3.90;;;1.30;;
53654;SDS011;39558;52.028;8.536;2023-05-29T12:54:10;3.70;;;1.40;;
53654;SDS011;39558;52.028;8.536;2023-05-29T12:56:36;2.05;;;1.20;;
53654;SDS011;39558;52.028;8.536;2023-05-29T12:59:04;3.50;;;1.25;;
53654;SDS011;39558;52.028;8.536;2023-05-29T13:01:30;2.40;;;1.27;;
53654;SDS011;39558;52.028;8.536;2023-05-29T13:03:56;2.22;;;1.13;;
53654;SDS011;39558;52.028;8.536;2023-05-29T13:06:22;1.73;;;1.00;;
53654;SDS011;39558;52.028;8.536;2023-05-29T13:08:48;2.42;;;1.13;;
53654;SDS011;39558;52.028;8.536;2023-05-29T13:11:14;2.25;;;1.17;;
53654;SDS011;39558;52.028;8.536;2023-05-29T13:13:39;4.03;;;1.30;;
53654;SDS011;39558;52.028;8.536;2023-05-29T13:16:05;2.80;;;1.45;;
53654;SDS011;39558;52.028;8.536;2023-05-29T13:18:31;3.53;;;1.23;;
53654;SDS011;39558;52.028;8.536;2023-05-29T13:20:59;2.42;;;0.98;;
53654;SDS011;39558;52.028;8.536;2023-05-29T13:23:25;4.22;;;1.50;;
53654;SDS011;39558;52.028;8.536;2023-05-29T13:25:50;3.30;;;1.20;;
53654;SDS011;39558;52.028;8.536;2023-05-29T13:28:16;3.03;;;1.15;;
53654;SDS011;39558;52.028;8.536;2023-05-29T13:30:43;2.55;;;1.40;;
53654;SDS011;39558;52.028;8.536;2023-05-29T13:33:09;3.67;;;1.35;;
53654;SDS011;39558;52.028;8.536;2023-05-29T13:35:35;3.53;;;1.25;;
53654;SDS011;39558;52.028;8.536;2023-05-29T13:38:01;2.63;;;1.50;;
53654;SDS011;39558;52.028;8.536;2023-05-29T13:40:27;2.78;;;1.23;;
53654;SDS011;39558;52.028;8.536;2023-05-29T13:42:53;2.97;;;1.50;;
53654;SDS011;39558;52.028;8.536;2023-05-29T13:45:19;3.00;;;1.13;;
53654;SDS011;39558;52.028;8.536;2023-05-29T13:47:45;2.55;;;1.00;;
53654;SDS011;39558;52.028;8.536;2023-05-29T13:50:11;2.70;;;1.27;;
53654;SDS011;39558;52.028;8.536;2023-05-29T13:52:37;1.75;;;1.00;;
53654;SDS011;39558;52.028;8.536;2023-05-29T13:55:03;2.05;;;1.10;;
53654;SDS011;39558;52.028;8.536;2023-05-29T13:57:33;6.07;;;1.70;;
53654;SDS011;39558;52.028;8.536;2023-05-29T13:59:59;2.78;;;1.05;;
53654;SDS011;39558;52.028;8.536;2023-05-29T14:02:25;3.40;;;1.27;;
53654;SDS011;39558;52.028;8.536;2023-05-29T14:04:51;3.08;;;1.48;;
53654;SDS011;39558;52.028;8.536;2023-05-29T14:07:17;2.20;;;1.10;;
53654;SDS011;39558;52.028;8.536;2023-05-29T14:09:43;3.42;;;1.50;;
53654;SDS011;39558;52.028;8.536;2023-05-29T14:12:09;2.70;;;1.55;;
53654;SDS011;39558;52.028;8.536;2023-05-29T14:14:35;4.22;;;1.40;;
53654;SDS011;39558;52.028;8.536;2023-05-29T14:17:00;3.13;;;1.10;;
53654;SDS011;39558;52.028;8.536;2023-05-29T14:19:28;2.53;;;1.10;;
53654;SDS011;39558;52.028;8.536;2023-05-29T14:21:54;3.38;;;1.55;;
53654;SDS011;39558;52.028;8.536;2023-05-29T14:24:20;2.83;;;1.05;;
53654;SDS011;39558;52.028;8.536;2023-05-29T14:26:46;3.40;;;1.45;;
53654;SDS011;39558;52.028;8.536;2023-05-29T14:29:12;3.03;;;1.08;;
53654;SDS011;39558;52.028;8.536;2023-05-29T14:31:39;2.85;;;1.15;;
53654;SDS011;39558;52.028;8.536;2023-05-29T14:34:05;2.90;;;1.25;;
53654;SDS011;39558;52.028;8.536;2023-05-29T14:36:31;2.38;;;1.23;;
53654;SDS011;39558;52.028;8.536;2023-05-29T14:38:57;3.13;;;1.42;;
53654;SDS011;39558;52.028;8.536;2023-05-29T14:41:23;2.95;;;1.23;;
53654;SDS011;39558;52.028;8.536;2023-05-29T14:43:50;3.15;;;1.70;;
53654;SDS011;39558;52.028;8.536;2023-05-29T14:46:16;2.35;;;1.25;;
53654;SDS011;39558;52.028;8.536;2023-05-29T14:48:42;3.72;;;1.30;;
53654;SDS011;39558;52.028;8.536;2023-05-29T14:51:09;2.78;;;1.40;;
53654;SDS011;39558;52.028;8.536;2023-05-29T14:53:35;3.65;;;1.52;;
53654;SDS011;39558;52.028;8.536;2023-05-29T14:56:01;2.17;;;1.17;;
53654;SDS011;39558;52.028;8.536;2023-05-29T14:58:27;4.70;;;1.40;;
53654;SDS011;39558;52.028;8.536;2023-05-29T15:00:53;3.40;;;1.25;;
53654;SDS011;39558;52.028;8.536;2023-05-29T15:03:19;2.90;;;1.35;;
53654;SDS011;39558;52.028;8.536;2023-05-29T15:05:45;2.75;;;1.35;;
53654;SDS011;39558;52.028;8.536;2023-05-29T15:08:11;2.53;;;1.30;;
53654;SDS011;39558;52.028;8.536;2023-05-29T15:10:37;2.45;;;1.20;;